createdAt,value
2024-02-29T00:00:15.370Z,17.60
2024-02-29T00:02:42.745Z,17.50
2024-02-29T00:05:13.074Z,17.60
2024-02-29T00:07:41.252Z,17.50
2024-02-29T00:10:10.263Z,17.60
2024-02-29T00:12:37.568Z,17.60
2024-02-29T00:15:04.952Z,17.50
2024-02-29T00:17:33.022Z,17.50
2024-02-29T00:20:00.716Z,17.50
2024-02-29T00:22:27.666Z,17.50
2024-02-29T00:24:54.601Z,17.60
2024-02-29T00:27:23.177Z,17.60
2024-02-29T00:29:50.181Z,17.50
2024-02-29T00:32:17.314Z,17.60
2024-02-29T00:34:44.342Z,17.70
2024-02-29T00:37:11.437Z,17.70
2024-02-29T00:39:38.472Z,17.70
2024-02-29T00:42:05.511Z,17.60
2024-02-29T00:44:32.459Z,17.70
2024-02-29T00:47:01.636Z,17.70
2024-02-29T00:49:28.662Z,17.60
2024-02-29T00:51:55.663Z,17.70
2024-02-29T00:54:26.178Z,17.70
2024-02-29T00:56:53.192Z,17.70
2024-02-29T00:59:20.191Z,17.70
2024-02-29T01:01:47.218Z,17.60
2024-02-29T01:04:14.338Z,17.70
2024-02-29T01:06:41.342Z,17.60
2024-02-29T01:09:08.327Z,17.70
2024-02-29T01:11:35.221Z,17.60
2024-02-29T01:14:04.027Z,17.60
2024-02-29T01:16:30.980Z,17.70
2024-02-29T01:18:58.545Z,17.60
2024-02-29T01:21:25.519Z,17.70
2024-02-29T01:23:52.425Z,17.60
2024-02-29T01:26:19.333Z,17.70
2024-02-29T01:28:46.248Z,17.60
2024-02-29T01:31:13.335Z,17.70
2024-02-29T01:33:40.354Z,17.70
2024-02-29T01:36:08.071Z,17.60
2024-02-29T01:38:34.973Z,17.60
2024-02-29T01:41:01.994Z,17.60
2024-02-29T01:43:30.702Z,17.30
2024-02-29T01:46:14.602Z,17.60
2024-02-29T01:48:42.926Z,17.70
2024-02-29T01:51:11.865Z,17.70
2024-02-29T01:53:39.213Z,17.60
2024-02-29T01:56:06.932Z,17.60
2024-02-29T01:58:35.312Z,17.60
2024-02-29T02:01:02.640Z,17.70
2024-02-29T02:03:30.330Z,17.60
2024-02-29T02:05:57.248Z,17.60
2024-02-29T02:08:27.906Z,17.60
2024-02-29T02:10:54.866Z,17.60
2024-02-29T02:13:21.804Z,17.60
2024-02-29T02:15:49.665Z,17.60
2024-02-29T02:18:16.585Z,17.50
2024-02-29T02:20:43.582Z,17.50
2024-02-29T02:23:10.481Z,17.50
2024-02-29T02:25:37.379Z,17.60
2024-02-29T02:28:04.821Z,17.50
2024-02-29T02:30:31.776Z,17.50
2024-02-29T02:32:58.734Z,17.60
2024-02-29T02:35:25.625Z,17.60
2024-02-29T02:37:52.546Z,17.50
2024-02-29T02:40:19.941Z,17.50
2024-02-29T02:42:46.973Z,17.50
2024-02-29T02:45:13.907Z,17.50
2024-02-29T02:47:40.873Z,17.60
2024-02-29T02:50:08.095Z,17.60
2024-02-29T02:52:35.139Z,17.50
2024-02-29T02:55:02.118Z,17.60
2024-02-29T02:57:29.109Z,17.50
2024-02-29T02:59:56.030Z,17.60
2024-02-29T03:02:23.003Z,17.50
2024-02-29T03:04:50.356Z,17.50
2024-02-29T03:07:17.357Z,17.60
2024-02-29T03:09:44.307Z,17.60
2024-02-29T03:12:11.514Z,17.60
2024-02-29T03:14:38.555Z,17.60
2024-02-29T03:17:05.648Z,17.50
2024-02-29T03:19:32.630Z,17.50
2024-02-29T03:21:59.599Z,17.50
2024-02-29T03:24:26.633Z,17.50
2024-02-29T03:26:53.549Z,17.50
2024-02-29T03:29:20.475Z,17.40
2024-02-29T03:31:47.394Z,17.40
2024-02-29T03:34:14.560Z,17.40
2024-02-29T03:36:41.677Z,17.30
2024-02-29T03:39:08.733Z,17.20
2024-02-29T03:41:35.807Z,17.40
2024-02-29T03:44:02.969Z,17.40
2024-02-29T03:46:29.862Z,17.40
2024-02-29T03:48:56.932Z,17.50
2024-02-29T03:51:23.865Z,17.60
2024-02-29T03:53:51.350Z,17.60
2024-02-29T03:56:18.358Z,17.50
2024-02-29T03:58:45.333Z,17.50
2024-02-29T04:01:12.353Z,17.50
2024-02-29T04:03:40.698Z,17.60
2024-02-29T04:06:10.284Z,17.60
2024-02-29T04:08:37.374Z,17.60
2024-02-29T04:11:05.634Z,17.60
2024-02-29T04:13:35.046Z,17.60
2024-02-29T04:16:04.073Z,17.60
2024-02-29T04:18:31.706Z,17.60
2024-02-29T04:20:58.904Z,17.50
2024-02-29T04:23:26.210Z,17.50
2024-02-29T04:25:53.110Z,17.60
2024-02-29T04:28:20.132Z,17.60
2024-02-29T04:30:47.162Z,17.50
2024-02-29T04:33:14.147Z,17.50
2024-02-29T04:35:41.319Z,17.60
2024-02-29T04:38:08.344Z,17.60
2024-02-29T04:40:35.334Z,17.60
2024-02-29T04:43:02.538Z,17.50
2024-02-29T04:45:29.567Z,17.60
2024-02-29T04:47:57.892Z,17.50
2024-02-29T04:50:25.027Z,17.50
2024-02-29T04:52:52.060Z,17.60
2024-02-29T04:55:20.505Z,17.60
2024-02-29T04:57:47.628Z,17.60
2024-02-29T05:00:14.915Z,17.60
2024-02-29T05:02:41.859Z,17.60
2024-02-29T05:05:09.097Z,17.60
2024-02-29T05:07:36.067Z,17.60
2024-02-29T05:10:04.005Z,17.60
2024-02-29T05:12:31.230Z,17.60
2024-02-29T05:14:58.159Z,17.60
2024-02-29T05:17:25.093Z,17.50
2024-02-29T05:19:53.202Z,17.60
2024-02-29T05:22:21.002Z,17.60
2024-02-29T05:24:48.149Z,17.80
2024-02-29T05:27:15.340Z,17.50
2024-02-29T05:29:42.218Z,17.60
2024-02-29T05:32:09.317Z,17.50
2024-02-29T05:34:36.288Z,17.60
2024-02-29T05:37:03.717Z,17.40
2024-02-29T05:39:31.495Z,17.60
2024-02-29T05:41:58.386Z,17.50
2024-02-29T05:44:25.358Z,17.60
2024-02-29T05:46:52.349Z,17.50
2024-02-29T05:49:20.203Z,17.50
2024-02-29T05:51:47.177Z,17.60
2024-02-29T05:54:14.232Z,17.50
2024-02-29T05:56:41.156Z,17.60
2024-02-29T05:59:08.116Z,17.60
2024-02-29T06:01:35.148Z,17.60
2024-02-29T06:04:02.222Z,17.50
2024-02-29T06:06:29.153Z,17.50
2024-02-29T06:08:56.053Z,17.50
2024-02-29T06:11:22.977Z,17.60
2024-02-29T06:13:50.009Z,17.60
2024-02-29T06:16:17.049Z,17.60
2024-02-29T06:18:48.091Z,17.60
2024-02-29T06:21:15.332Z,17.50
2024-02-29T06:23:42.415Z,17.40
2024-02-29T06:26:09.349Z,17.40
2024-02-29T06:28:37.146Z,17.40
2024-02-29T06:31:04.309Z,17.40
2024-02-29T06:33:31.249Z,17.40
2024-02-29T06:35:58.205Z,17.30
2024-02-29T06:38:25.095Z,17.30
2024-02-29T06:40:51.976Z,17.30
2024-02-29T06:43:19.192Z,17.30
2024-02-29T06:45:50.518Z,17.30
2024-02-29T06:48:18.620Z,17.30
2024-02-29T06:50:45.787Z,17.20
2024-02-29T06:53:13.908Z,17.30
2024-02-29T06:55:41.196Z,17.30
2024-02-29T06:58:08.141Z,17.20
2024-02-29T07:00:35.364Z,17.20
2024-02-29T07:03:03.088Z,17.20
2024-02-29T07:05:32.712Z,17.20
2024-02-29T07:08:02.591Z,17.30
2024-02-29T07:10:29.675Z,17.20
2024-02-29T07:12:56.733Z,17.40
2024-02-29T07:15:24.206Z,17.30
2024-02-29T07:17:51.240Z,17.30
2024-02-29T07:20:19.307Z,17.30
2024-02-29T07:22:47.836Z,17.30
2024-02-29T07:25:16.001Z,17.30
2024-02-29T07:27:44.695Z,17.30
2024-02-29T07:30:11.784Z,17.30
2024-02-29T07:32:38.981Z,17.30
2024-02-29T07:35:06.447Z,17.30
2024-02-29T07:37:33.954Z,17.30
2024-02-29T07:40:01.598Z,17.30
2024-02-29T07:42:29.077Z,17.20
2024-02-29T07:44:56.166Z,17.20
2024-02-29T07:47:23.341Z,17.30
2024-02-29T07:49:50.404Z,17.20
2024-02-29T07:52:17.872Z,17.40
2024-02-29T07:54:47.058Z,17.20
2024-02-29T07:57:14.203Z,17.10
2024-02-29T07:59:41.152Z,17.20
2024-02-29T08:02:08.704Z,17.10
2024-02-29T08:04:37.034Z,17.20
2024-02-29T08:07:05.335Z,17.20
2024-02-29T08:09:32.368Z,17.20
2024-02-29T08:11:59.419Z,17.20
2024-02-29T08:14:26.374Z,17.20
2024-02-29T08:16:53.259Z,17.10
2024-02-29T08:19:20.342Z,17.20
2024-02-29T08:21:49.584Z,17.20
2024-02-29T08:24:17.769Z,17.20
2024-02-29T08:26:45.206Z,17.20
2024-02-29T08:29:14.859Z,17.40
2024-02-29T08:31:42.959Z,17.30
2024-02-29T08:34:10.189Z,17.30
2024-02-29T08:36:37.184Z,17.20
2024-02-29T08:39:04.360Z,17.20
2024-02-29T08:41:31.306Z,17.30
2024-02-29T08:43:58.223Z,17.10
2024-02-29T08:46:25.672Z,17.30
2024-02-29T08:48:53.022Z,17.20
2024-02-29T08:51:20.494Z,17.20
2024-02-29T08:53:47.392Z,17.30
2024-02-29T08:56:14.657Z,17.20
2024-02-29T08:58:41.657Z,17.20
2024-02-29T09:01:09.380Z,17.20
2024-02-29T09:03:36.510Z,17.20
2024-02-29T09:06:03.507Z,17.10
2024-02-29T09:08:30.477Z,17.20
2024-02-29T09:10:57.684Z,17.20
2024-02-29T09:13:30.514Z,17.10
2024-02-29T09:16:02.494Z,17.20
2024-02-29T09:18:31.592Z,17.10
2024-02-29T09:20:58.858Z,17.10
2024-02-29T09:23:27.643Z,17.10
2024-02-29T09:25:55.216Z,17.10
2024-02-29T09:28:22.500Z,17.10
2024-02-29T09:30:49.730Z,17.10
2024-02-29T09:33:16.926Z,17.10
2024-02-29T09:35:44.000Z,17.20
2024-02-29T09:38:10.967Z,17.20
2024-02-29T09:40:45.988Z,17.10
2024-02-29T09:43:18.584Z,17.10
2024-02-29T09:45:46.520Z,17.20
2024-02-29T09:48:16.556Z,17.10
2024-02-29T09:50:43.891Z,17.10
2024-02-29T09:53:11.525Z,17.20
2024-02-29T09:55:38.648Z,17.20
2024-02-29T09:58:06.200Z,17.10
2024-02-29T10:00:35.566Z,17.10
2024-02-29T10:03:02.956Z,17.10
2024-02-29T10:05:29.895Z,17.10
2024-02-29T10:07:56.891Z,17.20
2024-02-29T10:10:24.379Z,17.10
2024-02-29T10:12:58.187Z,17.20
2024-02-29T10:15:28.947Z,17.00
2024-02-29T10:17:59.742Z,17.10
2024-02-29T10:20:27.759Z,17.10
2024-02-29T10:22:54.729Z,17.20
2024-02-29T10:25:22.795Z,17.20
2024-02-29T10:27:50.217Z,17.10
2024-02-29T10:30:20.292Z,17.20
2024-02-29T10:32:48.133Z,17.20
2024-02-29T10:35:24.811Z,17.20
2024-02-29T10:37:56.167Z,17.20
2024-02-29T10:40:25.115Z,17.20
2024-02-29T10:42:56.916Z,17.20
2024-02-29T10:45:27.831Z,17.20
2024-02-29T10:48:23.298Z,17.20
2024-02-29T10:51:02.520Z,17.30
2024-02-29T10:54:03.678Z,17.30
2024-02-29T10:56:32.805Z,17.20
2024-02-29T10:59:06.562Z,17.20
2024-02-29T11:01:34.619Z,17.20
2024-02-29T11:04:02.276Z,17.30
2024-02-29T11:06:33.322Z,17.30
2024-02-29T11:09:02.498Z,17.30
2024-02-29T11:11:29.965Z,17.30
2024-02-29T11:14:06.102Z,17.30
2024-02-29T11:16:33.962Z,17.40
2024-02-29T11:19:04.779Z,17.40
2024-02-29T11:21:32.056Z,17.40
2024-02-29T11:24:04.345Z,17.50
2024-02-29T11:26:33.726Z,17.50
2024-02-29T11:29:12.921Z,17.50
2024-02-29T11:31:49.105Z,17.40
2024-02-29T11:34:22.466Z,17.40
2024-02-29T11:36:51.151Z,17.50
2024-02-29T11:39:22.150Z,17.50
2024-02-29T11:41:50.119Z,17.60
2024-02-29T11:44:17.354Z,17.50
2024-02-29T11:46:47.992Z,17.50
2024-02-29T11:49:18.390Z,17.50
2024-02-29T11:51:46.116Z,17.50
2024-02-29T11:54:17.369Z,17.50
2024-02-29T11:56:44.352Z,17.50
2024-02-29T11:59:12.337Z,17.40
2024-02-29T12:01:39.800Z,17.50
2024-02-29T12:04:07.796Z,17.50
2024-02-29T12:06:38.522Z,17.50
2024-02-29T12:09:08.167Z,17.60
2024-02-29T12:11:35.591Z,17.40
2024-02-29T12:14:02.743Z,17.50
2024-02-29T12:16:30.917Z,17.50
2024-02-29T12:18:57.977Z,17.50
2024-02-29T12:21:28.425Z,17.50
2024-02-29T12:23:57.482Z,17.50
2024-02-29T12:26:25.623Z,17.50
2024-02-29T12:28:52.553Z,17.50
2024-02-29T12:31:20.382Z,17.60
2024-02-29T12:33:48.632Z,17.60
2024-02-29T12:36:20.417Z,17.50
2024-02-29T12:38:47.983Z,17.60
2024-02-29T12:41:15.085Z,17.60
2024-02-29T12:43:55.360Z,17.50
2024-02-29T12:46:22.515Z,17.60
2024-02-29T12:48:49.532Z,17.60
2024-02-29T12:51:16.491Z,17.60
2024-02-29T12:53:45.623Z,17.70
2024-02-29T12:56:12.617Z,17.80
2024-02-29T12:58:40.793Z,17.80
2024-02-29T13:01:08.516Z,17.70
2024-02-29T13:03:36.022Z,17.80
2024-02-29T13:06:03.020Z,17.90
2024-02-29T13:08:30.086Z,17.90
2024-02-29T13:10:56.978Z,17.80
2024-02-29T13:13:23.929Z,17.80
2024-02-29T13:15:52.767Z,17.70
2024-02-29T13:18:21.480Z,17.80
2024-02-29T13:20:48.391Z,17.70
2024-02-29T13:23:15.985Z,17.70
2024-02-29T13:25:42.901Z,17.80
2024-02-29T13:28:09.897Z,17.70
2024-02-29T13:30:36.775Z,17.60
2024-02-29T13:33:03.834Z,17.60
2024-02-29T13:35:30.723Z,17.70
2024-02-29T13:37:57.637Z,17.60
2024-02-29T13:40:25.807Z,17.50
2024-02-29T13:42:52.865Z,17.60
2024-02-29T13:45:19.861Z,17.70
2024-02-29T13:47:49.637Z,17.50
2024-02-29T13:50:16.876Z,17.50
2024-02-29T13:52:44.545Z,17.60
2024-02-29T13:55:12.528Z,17.60
2024-02-29T13:57:40.300Z,17.50
2024-02-29T14:00:09.864Z,17.60
2024-02-29T14:02:37.123Z,17.60
2024-02-29T14:05:04.169Z,17.60
2024-02-29T14:07:31.236Z,17.60
2024-02-29T14:09:58.705Z,17.60
2024-02-29T14:12:28.579Z,17.50
2024-02-29T14:14:55.546Z,17.60
2024-02-29T14:17:22.531Z,17.60
2024-02-29T14:19:49.464Z,17.60
2024-02-29T14:22:16.757Z,17.60
2024-02-29T14:24:44.659Z,17.60
2024-02-29T14:27:14.217Z,17.70
2024-02-29T14:29:41.553Z,17.70
2024-02-29T14:32:10.270Z,17.90
2024-02-29T14:34:37.622Z,17.90
2024-02-29T14:37:05.509Z,18.00
2024-02-29T14:39:32.520Z,18.10
2024-02-29T14:41:59.635Z,18.10
2024-02-29T14:44:26.593Z,18.00
2024-02-29T14:46:55.348Z,18.00
2024-02-29T14:49:22.637Z,18.10
2024-02-29T14:51:49.712Z,18.10
2024-02-29T14:54:16.668Z,18.20
2024-02-29T14:56:44.765Z,18.20
2024-02-29T14:59:12.215Z,18.20
2024-02-29T15:01:39.473Z,18.20
2024-02-29T15:04:06.577Z,18.20
2024-02-29T15:06:33.602Z,18.30
2024-02-29T15:09:00.569Z,18.20
2024-02-29T15:11:28.005Z,18.30
2024-02-29T15:13:55.127Z,18.30
2024-02-29T15:16:22.145Z,18.30
2024-02-29T15:18:49.347Z,18.30
2024-02-29T15:21:16.300Z,18.30
2024-02-29T15:23:43.628Z,18.30
2024-02-29T15:26:12.253Z,18.30
2024-02-29T15:28:42.228Z,18.20
2024-02-29T15:31:09.668Z,18.30
2024-02-29T15:33:36.764Z,18.30
2024-02-29T15:36:03.933Z,18.20
2024-02-29T15:38:30.900Z,18.40
2024-02-29T15:40:57.882Z,18.30
2024-02-29T15:43:24.938Z,18.20
2024-02-29T15:45:51.992Z,18.20
2024-02-29T15:48:19.349Z,18.20
2024-02-29T15:50:49.492Z,18.30
2024-02-29T15:53:16.542Z,18.30
2024-02-29T15:55:43.477Z,18.30
2024-02-29T15:58:10.951Z,18.20
2024-02-29T16:00:37.860Z,18.30
2024-02-29T16:03:07.392Z,18.30
2024-02-29T16:05:34.852Z,18.30
2024-02-29T16:08:02.863Z,18.30
2024-02-29T16:10:33.043Z,18.40
2024-02-29T16:13:02.362Z,18.50
2024-02-29T16:15:30.564Z,18.60
2024-02-29T16:17:57.528Z,18.60
2024-02-29T16:20:24.557Z,18.50
2024-02-29T16:22:51.485Z,18.60
2024-02-29T16:25:19.730Z,18.50
2024-02-29T16:27:47.181Z,18.30
2024-02-29T16:30:14.855Z,18.30
2024-02-29T16:32:44.498Z,18.30
2024-02-29T16:35:13.978Z,18.20
2024-02-29T16:37:41.103Z,18.10
2024-02-29T16:40:08.575Z,18.20
2024-02-29T16:42:35.707Z,18.10
2024-02-29T16:45:02.822Z,18.10
2024-02-29T16:47:29.994Z,18.10
2024-02-29T16:49:57.356Z,18.00
2024-02-29T16:52:24.350Z,18.10
2024-02-29T16:54:51.460Z,18.40
2024-02-29T16:57:18.761Z,18.20
2024-02-29T16:59:45.821Z,18.20
2024-02-29T17:02:16.454Z,18.20
2024-02-29T17:04:46.343Z,18.10
2024-02-29T17:07:13.647Z,18.20
2024-02-29T17:09:40.663Z,18.10
2024-02-29T17:12:11.651Z,18.10
2024-02-29T17:14:38.581Z,18.00
2024-02-29T17:17:06.003Z,18.10
2024-02-29T17:19:32.934Z,18.00
2024-02-29T17:22:00.278Z,18.10
2024-02-29T17:24:28.013Z,18.00
2024-02-29T17:26:57.273Z,18.00
2024-02-29T17:29:24.228Z,18.00
2024-02-29T17:31:51.165Z,18.00
2024-02-29T17:34:18.114Z,17.90
2024-02-29T17:36:45.536Z,17.90
2024-02-29T17:39:12.590Z,18.00
2024-02-29T17:41:39.501Z,17.90
2024-02-29T17:44:06.793Z,17.90
2024-02-29T17:46:33.710Z,17.90
2024-02-29T17:49:00.708Z,17.90
2024-02-29T17:51:27.797Z,18.00
2024-02-29T17:53:54.727Z,17.90
2024-02-29T17:56:21.823Z,17.90
2024-02-29T17:58:50.875Z,17.90
2024-02-29T18:01:18.316Z,17.90
2024-02-29T18:03:48.325Z,17.90
2024-02-29T18:06:15.801Z,17.80
2024-02-29T18:08:42.827Z,17.90
2024-02-29T18:11:10.216Z,17.90
2024-02-29T18:13:38.230Z,17.90
2024-02-29T18:16:05.988Z,17.90
2024-02-29T18:18:35.641Z,17.90
2024-02-29T18:21:02.998Z,17.90
2024-02-29T18:23:29.984Z,17.90
2024-02-29T18:25:56.995Z,17.80
2024-02-29T18:28:24.136Z,18.00
2024-02-29T18:30:51.216Z,17.90
2024-02-29T18:33:18.269Z,18.00
2024-02-29T18:35:45.863Z,18.00
2024-02-29T18:38:13.320Z,17.90
2024-02-29T18:40:40.996Z,18.00
2024-02-29T18:43:08.010Z,17.90
2024-02-29T18:45:34.935Z,18.00
2024-02-29T18:48:02.331Z,18.00
2024-02-29T18:50:29.311Z,17.90
2024-02-29T18:52:56.254Z,17.90
2024-02-29T18:55:24.429Z,17.80
2024-02-29T18:57:51.636Z,17.80
2024-02-29T19:00:19.133Z,17.80
2024-02-29T19:02:46.181Z,17.80
2024-02-29T19:05:13.064Z,17.80
2024-02-29T19:07:40.084Z,17.80
2024-02-29T19:10:09.643Z,17.80
2024-02-29T19:12:37.769Z,17.70
2024-02-29T19:15:05.612Z,17.70
2024-02-29T19:17:32.596Z,17.80
2024-02-29T19:19:59.912Z,17.70
2024-02-29T19:22:28.852Z,17.70
2024-02-29T19:24:58.350Z,17.80
2024-02-29T19:27:25.329Z,18.00
2024-02-29T19:29:53.545Z,17.90
2024-02-29T19:32:21.422Z,17.80
2024-02-29T19:34:49.371Z,17.90
2024-02-29T19:37:16.313Z,17.80
2024-02-29T19:39:48.374Z,17.90
2024-02-29T19:42:15.467Z,17.90
2024-02-29T19:44:42.387Z,17.90
2024-02-29T19:47:09.430Z,17.90
2024-02-29T19:49:38.993Z,18.10
2024-02-29T19:52:07.233Z,17.90
2024-02-29T19:54:35.166Z,17.90
2024-02-29T19:57:02.138Z,17.90
2024-02-29T19:59:29.221Z,17.90
2024-02-29T20:01:56.210Z,17.90
2024-02-29T20:04:26.243Z,17.90
2024-02-29T20:06:55.625Z,17.80
2024-02-29T20:09:23.694Z,17.90
2024-02-29T20:11:50.628Z,17.90
2024-02-29T20:14:17.670Z,17.90
2024-02-29T20:16:44.670Z,17.90
2024-02-29T20:19:12.472Z,17.90
2024-02-29T20:21:39.900Z,17.90
2024-02-29T20:24:06.958Z,17.80
2024-02-29T20:26:33.846Z,17.90
2024-02-29T20:29:00.758Z,17.90
2024-02-29T20:31:30.209Z,17.90
2024-02-29T20:33:57.376Z,17.80
2024-02-29T20:36:24.409Z,17.90
2024-02-29T20:38:52.720Z,17.90
2024-02-29T20:41:19.631Z,17.90
2024-02-29T20:43:46.824Z,17.80
2024-02-29T20:46:16.494Z,17.90
2024-02-29T20:48:45.886Z,17.80
2024-02-29T20:51:13.017Z,18.00
2024-02-29T20:53:40.132Z,17.90
2024-02-29T20:56:07.655Z,17.90
2024-02-29T20:58:35.565Z,17.90
2024-02-29T21:01:04.501Z,17.90
2024-02-29T21:03:31.488Z,17.80
2024-02-29T21:05:59.868Z,17.90
2024-02-29T21:08:33.373Z,17.90
2024-02-29T21:11:01.987Z,17.80
2024-02-29T21:13:34.491Z,17.90
2024-02-29T21:16:01.732Z,17.90
2024-02-29T21:18:28.968Z,17.90
2024-02-29T21:20:55.842Z,17.90
2024-02-29T21:23:23.421Z,17.90
2024-02-29T21:25:50.416Z,17.70
2024-02-29T21:28:17.385Z,17.70
2024-02-29T21:30:44.538Z,17.80
2024-02-29T21:33:11.565Z,17.70
2024-02-29T21:35:38.523Z,17.70
2024-02-29T21:38:05.502Z,17.60
2024-02-29T21:40:32.768Z,17.60
2024-02-29T21:43:00.831Z,17.60
2024-02-29T21:45:27.766Z,17.60
2024-02-29T21:47:54.735Z,17.60
2024-02-29T21:50:22.979Z,17.60
2024-02-29T21:52:50.125Z,17.70
2024-02-29T21:55:17.274Z,17.60
2024-02-29T21:57:44.549Z,17.50
2024-02-29T22:00:14.028Z,17.60
2024-02-29T22:02:41.234Z,17.60
2024-02-29T22:05:09.721Z,17.60
2024-02-29T22:07:36.902Z,17.60
2024-02-29T22:10:03.997Z,17.60
2024-02-29T22:12:31.305Z,17.60
2024-02-29T22:14:58.281Z,17.60
2024-02-29T22:17:25.205Z,17.60
2024-02-29T22:19:52.118Z,17.70
2024-02-29T22:22:19.093Z,17.60
2024-02-29T22:24:47.418Z,17.60
2024-02-29T22:27:14.418Z,17.70
2024-02-29T22:29:41.346Z,17.80
2024-02-29T22:32:08.402Z,17.80
2024-02-29T22:34:35.433Z,17.90
2024-02-29T22:37:04.388Z,17.80
2024-02-29T22:39:31.426Z,17.80
2024-02-29T22:42:02.203Z,17.80
2024-02-29T22:44:30.254Z,17.70
2024-02-29T22:46:57.252Z,17.70
2024-02-29T22:49:24.865Z,17.70
2024-02-29T22:51:52.402Z,17.70
2024-02-29T22:54:19.501Z,17.60
2024-02-29T22:56:46.516Z,17.70
2024-02-29T22:59:13.466Z,17.70
2024-02-29T23:01:46.740Z,17.60
2024-02-29T23:04:14.283Z,17.60
2024-02-29T23:06:41.913Z,17.60
2024-02-29T23:09:09.052Z,17.60
2024-02-29T23:11:36.435Z,17.60
2024-02-29T23:14:03.634Z,17.50
2024-02-29T23:16:30.662Z,17.50
2024-02-29T23:18:57.614Z,17.50
2024-02-29T23:21:25.421Z,17.50
2024-02-29T23:23:52.426Z,17.50
2024-02-29T23:26:22.468Z,17.50
2024-02-29T23:28:49.464Z,17.50
2024-02-29T23:31:17.925Z,17.50
2024-02-29T23:33:44.923Z,17.50
2024-02-29T23:36:11.901Z,17.60
2024-02-29T23:38:41.702Z,17.50
2024-02-29T23:41:08.708Z,17.50
2024-02-29T23:43:35.746Z,17.40
2024-02-29T23:46:06.204Z,17.50
2024-02-29T23:48:33.227Z,17.40
2024-02-29T23:51:00.200Z,17.40
2024-02-29T23:53:27.299Z,17.50
2024-02-29T23:55:54.226Z,17.50
2024-02-29T23:58:21.177Z,17.50
